Aviation Digital Data Service (ADDS)

Output produced by METARs form (1112 UTC 02 March 2015)
found at http://aviationweather.gov/adds/metars/
 
KLWB 021110Z 0211/0306 30012KT P6SM SCT005 OVC015 
     FM021400 30010G17KT P6SM BKN025 
     FM021900 30008KT P6SM SCT030 
     FM022200 31003KT P6SM SCT250